Wetterdaten: Woche 05.11.12 - 11.11.12 (KW45)
Datum Zeit Temp. Innen Temp. Aussen UV X Diff Temp. Feuchte Inne Feuchte Auss Sonnenschein Luftdruck Regen ab 0,1 Wind Sonnenschein T Regendauer Windben
05.11.2012 00:00 14,9 C 9,3 C 0,0 UV-I 0,0 C 54 % 80 % 0 % 996,9 hPa 0,0 l/m 7,3 km/h (2 Bft) 0,00 h 0,00 h 10,7 km/h (2 Bft)
05.11.2012 01:00 14,9 C 8,8 C 0,0 UV-I 0,0 C 54 % 82 % 0 % 996,9 hPa 0,0 l/m 5,6 km/h (1 Bft) 0,00 h 0,00 h 10,2 km/h (2 Bft)
05.11.2012 02:00 14,8 C 8,3 C 0,0 UV-I 0,0 C 54 % 84 % 0 % 996,9 hPa 0,0 l/m 4,6 km/h (1 Bft) 0,00 h 0,00 h 6,2 km/h (2 Bft)
05.11.2012 03:00 14,8 C 7,6 C 0,0 UV-I 0,0 C 55 % 86 % 0 % 997,0 hPa 0,0 l/m 3,9 km/h (1 Bft) 0,00 h 0,00 h 6,6 km/h (2 Bft)
05.11.2012 04:00 14,8 C 7,2 C 0,0 UV-I 0,0 C 55 % 88 % 0 % 997,0 hPa 0,0 l/m 2,6 km/h (1 Bft) 0,00 h 0,00 h 4,6 km/h (1 Bft)
05.11.2012 05:00 14,8 C 7,2 C 0,0 UV-I 0,0 C 55 % 90 % 0 % 997,4 hPa 0,0 l/m 3,0 km/h (1 Bft) 0,00 h 0,00 h 5,1 km/h (1 Bft)
05.11.2012 06:00 14,8 C 7,0 C 0,0 UV-I 0,0 C 55 % 90 % 0 % 997,7 hPa 0,0 l/m 2,8 km/h (1 Bft) 0,00 h 0,00 h 5,5 km/h (1 Bft)
05.11.2012 07:00 14,8 C 7,3 C 0,0 UV-I 0,0 C 55 % 91 % 0 % 998,1 hPa 0,0 l/m 4,9 km/h (1 Bft) 0,00 h 0,00 h 7,5 km/h (2 Bft)
05.11.2012 08:00 14,8 C 7,2 C 0,0 UV-I 0,0 C 55 % 90 % 0 % 998,4 hPa 0,0 l/m 6,2 km/h (2 Bft) 0,00 h 0,00 h 9,6 km/h (2 Bft)
05.11.2012 09:00 14,8 C 7,4 C 0,0 UV-I 1,3 C 55 % 91 % 36 % 999,1 hPa 0,0 l/m 5,8 km/h (2 Bft) 0,30 h 0,00 h 8,0 km/h (2 Bft)
05.11.2012 10:00 14,8 C 8,0 C 0,2 UV-I 1,0 C 55 % 89 % 29 % 999,9 hPa 0,0 l/m 7,4 km/h (2 Bft) 0,00 h 0,00 h 10,0 km/h (2 Bft)
05.11.2012 11:00 15,0 C 8,4 C 0,1 UV-I 0,6 C 55 % 87 % 17 % 1000,4 hPa 0,0 l/m 6,4 km/h (2 Bft) 0,00 h 0,00 h 9,4 km/h (2 Bft)
05.11.2012 12:00 15,0 C 8,1 C 0,0 UV-I 0,0 C 55 % 90 % 0 % 1000,9 hPa 0,1 l/m 3,9 km/h (1 Bft) 0,00 h 0,43 h 6,4 km/h (2 Bft)
05.11.2012 13:00 15,1 C 7,7 C 0,0 UV-I 0,0 C 56 % 93 % 0 % 1001,4 hPa 0,0 l/m 1,8 km/h (1 Bft) 0,00 h 0,03 h 3,1 km/h (1 Bft)
05.11.2012 14:00 15,1 C 7,8 C 0,0 UV-I 0,0 C 57 % 94 % 0 % 1002,0 hPa 0,0 l/m 2,4 km/h (1 Bft) 0,00 h 0,00 h 4,1 km/h (1 Bft)
05.11.2012 15:00 15,2 C 7,9 C 0,0 UV-I 0,0 C 57 % 94 % 0 % 1002,7 hPa 0,2 l/m 1,6 km/h (1 Bft) 0,00 h 0,17 h 3,1 km/h (1 Bft)
05.11.2012 16:00 15,2 C 7,7 C 0,0 UV-I 0,0 C 59 % 95 % 0 % 1003,2 hPa 0,0 l/m 0,6 km/h (0 Bft) 0,00 h 0,00 h 1,0 km/h (0 Bft)
05.11.2012 17:00 15,1 C 7,0 C 0,0 UV-I 0,0 C 58 % 95 % 0 % 1003,9 hPa 0,0 l/m 0,0 km/h (0 Bft) 0,00 h 0,00 h 0,1 km/h (0 Bft)
05.11.2012 18:00 15,0 C 5,9 C 0,0 UV-I 0,0 C 57 % 94 % 0 % 1005,2 hPa 0,0 l/m 0,0 km/h (0 Bft) 0,00 h 0,00 h 0,2 km/h (0 Bft)
05.11.2012 19:00 14,8 C 4,8 C 0,0 UV-I 0,0 C 57 % 95 % 0 % 1006,1 hPa 0,0 l/m 0,1 km/h (0 Bft) 0,00 h 0,00 h 0,3 km/h (0 Bft)
05.11.2012 20:00 14,7 C 4,0 C 0,0 UV-I 0,0 C 56 % 95 % 0 % 1006,8 hPa 0,0 l/m 0,0 km/h (0 Bft) 0,00 h 0,00 h 0,0 km/h (0 Bft)
05.11.2012 21:00 14,6 C 3,8 C 0,0 UV-I 0,0 C 56 % 96 % 0 % 1007,9 hPa 0,0 l/m 0,0 km/h (0 Bft) 0,00 h 0,00 h 0,1 km/h (0 Bft)
05.11.2012 22:00 14,5 C 3,5 C 0,0 UV-I 0,0 C 55 % 97 % 0 % 1008,8 hPa 0,0 l/m 0,1 km/h (0 Bft) 0,00 h 0,03 h 0,1 km/h (0 Bft)
05.11.2012 23:00 14,4 C 3,3 C 0,0 UV-I 0,0 C 55 % 97 % 0 % 1009,5 hPa 0,0 l/m 0,2 km/h (0 Bft) 0,00 h 0,03 h 0,5 km/h (0 Bft)
06.11.2012 00:00 14,4 C 3,4 C 0,0 UV-I 0,0 C 55 % 97 % 0 % 1010,0 hPa 0,0 l/m 0,1 km/h (0 Bft) 0,00 h 0,07 h 0,2 km/h (0 Bft)
06.11.2012 01:00 14,4 C 3,4 C 0,0 UV-I 0,0 C 55 % 97 % 0 % 1010,4 hPa 0,0 l/m 0,7 km/h (0 Bft) 0,00 h 0,00 h 1,7 km/h (1 Bft)
06.11.2012 02:00 14,4 C 3,7 C 0,0 UV-I 0,0 C 55 % 97 % 0 % 1011,0 hPa 0,0 l/m 0,7 km/h (0 Bft) 0,00 h 0,00 h 1,5 km/h (1 Bft)
06.11.2012 03:00 14,3 C 3,4 C 0,0 UV-I 0,0 C 54 % 97 % 0 % 1011,6 hPa 0,0 l/m 0,4 km/h (0 Bft) 0,00 h 0,00 h 0,9 km/h (0 Bft)
06.11.2012 04:00 14,4 C 3,2 C 0,0 UV-I 0,0 C 54 % 97 % 0 % 1012,1 hPa 0,0 l/m 0,7 km/h (0 Bft) 0,00 h 0,00 h 1,3 km/h (1 Bft)
06.11.2012 05:00 14,4 C 3,2 C 0,0 UV-I 0,0 C 54 % 98 % 0 % 1013,0 hPa 0,1 l/m 0,8 km/h (0 Bft) 0,00 h 0,00 h 0,9 km/h (0 Bft)
06.11.2012 06:00 14,3 C 2,9 C 0,0 UV-I 0,0 C 54 % 98 % 0 % 1013,9 hPa 0,0 l/m 0,4 km/h (0 Bft) 0,00 h 0,00 h 0,6 km/h (0 Bft)
06.11.2012 07:00 14,2 C 2,7 C 0,0 UV-I 0,0 C 54 % 98 % 0 % 1014,6 hPa 0,0 l/m 0,5 km/h (0 Bft) 0,00 h 0,07 h 0,6 km/h (0 Bft)
06.11.2012 08:00 14,2 C 2,8 C 0,0 UV-I 0,0 C 54 % 98 % 0 % 1015,5 hPa 0,0 l/m 0,5 km/h (0 Bft) 0,00 h 0,00 h 0,7 km/h (0 Bft)
06.11.2012 09:00 14,3 C 3,9 C 0,1 UV-I 4,3 C 54 % 99 % 78 % 1016,2 hPa 0,0 l/m 1,3 km/h (1 Bft) 0,77 h 0,00 h 2,3 km/h (1 Bft)
06.11.2012 10:00 14,2 C 5,9 C 0,3 UV-I 7,7 C 55 % 98 % 100 % 1016,8 hPa 0,0 l/m 2,9 km/h (1 Bft) 1,00 h 0,00 h 5,1 km/h (1 Bft)
06.11.2012 11:00 14,3 C 8,0 C 0,6 UV-I 7,8 C 55 % 94 % 100 % 1017,3 hPa 0,0 l/m 3,4 km/h (1 Bft) 1,00 h 0,00 h 5,5 km/h (1 Bft)
06.11.2012 12:00 14,7 C 9,5 C 0,8 UV-I 7,1 C 55 % 88 % 100 % 1017,5 hPa 0,0 l/m 4,5 km/h (1 Bft) 1,00 h 0,00 h 7,0 km/h (2 Bft)
06.11.2012 13:00 15,8 C 10,3 C 0,5 UV-I 5,4 C 54 % 83 % 90 % 1018,7 hPa 0,0 l/m 5,6 km/h (1 Bft) 0,78 h 0,07 h 8,8 km/h (2 Bft)
06.11.2012 14:00 16,2 C 9,3 C 0,2 UV-I 1,0 C 52 % 85 % 27 % 1017,8 hPa 0,0 l/m 4,2 km/h (1 Bft) 0,00 h 0,07 h 6,7 km/h (2 Bft)
06.11.2012 15:00 16,0 C 9,4 C 0,0 UV-I 0,2 C 53 % 86 % 5 % 1017,2 hPa 0,0 l/m 2,6 km/h (1 Bft) 0,00 h 0,00 h 5,0 km/h (1 Bft)
06.11.2012 16:00 15,6 C 9,3 C 0,0 UV-I 0,0 C 55 % 83 % 0 % 1017,2 hPa 0,1 l/m 2,9 km/h (1 Bft) 0,00 h 0,00 h 4,3 km/h (1 Bft)
06.11.2012 17:00 15,1 C 8,7 C 0,0 UV-I 0,0 C 55 % 83 % 0 % 1017,5 hPa 0,0 l/m 3,1 km/h (1 Bft) 0,00 h 0,00 h 5,5 km/h (1 Bft)
06.11.2012 18:00 14,8 C 8,5 C 0,0 UV-I 0,0 C 54 % 83 % 0 % 1017,6 hPa 0,0 l/m 3,4 km/h (1 Bft) 0,00 h 0,00 h 5,5 km/h (1 Bft)
06.11.2012 19:00 14,4 C 8,4 C 0,0 UV-I 0,0 C 53 % 81 % 0 % 1017,9 hPa 0,0 l/m 6,3 km/h (2 Bft) 0,00 h 0,07 h 9,8 km/h (2 Bft)
06.11.2012 20:00 14,2 C 8,3 C 0,0 UV-I 0,0 C 53 % 82 % 0 % 1017,8 hPa 0,0 l/m 6,3 km/h (2 Bft) 0,00 h 0,00 h 8,7 km/h (2 Bft)
06.11.2012 21:00 14,0 C 8,2 C 0,0 UV-I 0,0 C 54 % 84 % 0 % 1017,8 hPa 0,0 l/m 6,9 km/h (2 Bft) 0,00 h 0,43 h 9,6 km/h (2 Bft)
06.11.2012 22:00 13,9 C 7,6 C 0,0 UV-I 0,0 C 56 % 89 % 0 % 1017,6 hPa 0,2 l/m 6,8 km/h (2 Bft) 0,00 h 0,70 h 9,2 km/h (2 Bft)
06.11.2012 23:00 13,6 C 7,4 C 0,0 UV-I 0,0 C 58 % 93 % 0 % 1017,6 hPa 0,0 l/m 9,2 km/h (2 Bft) 0,00 h 0,00 h 13,8 km/h (3 Bft)
07.11.2012 00:00 13,6 C 7,5 C 0,0 UV-I 0,0 C 61 % 95 % 0 % 1017,8 hPa 0,5 l/m 8,0 km/h (2 Bft) 0,00 h 0,57 h 11,7 km/h (2 Bft)
07.11.2012 01:00 13,6 C 7,6 C 0,0 UV-I 0,0 C 62 % 96 % 0 % 1018,0 hPa 0,9 l/m 7,7 km/h (2 Bft) 0,00 h 1,00 h 12,4 km/h (3 Bft)
07.11.2012 02:00 13,6 C 7,9 C 0,0 UV-I 0,0 C 64 % 97 % 0 % 1018,4 hPa 0,2 l/m 7,2 km/h (2 Bft) 0,00 h 0,33 h 9,1 km/h (2 Bft)
07.11.2012 03:00 13,6 C 8,2 C 0,0 UV-I 0,0 C 65 % 98 % 0 % 1018,8 hPa 0,0 l/m 8,4 km/h (2 Bft) 0,00 h 0,03 h 11,5 km/h (2 Bft)
07.11.2012 04:00 13,6 C 8,4 C 0,0 UV-I 0,0 C 66 % 98 % 0 % 1019,0 hPa 0,2 l/m 6,7 km/h (2 Bft) 0,00 h 0,40 h 9,1 km/h (2 Bft)
07.11.2012 05:00 13,7 C 8,7 C 0,0 UV-I 0,0 C 67 % 99 % 0 % 1019,5 hPa 0,1 l/m 4,0 km/h (1 Bft) 0,00 h 0,43 h 7,2 km/h (2 Bft)
07.11.2012 06:00 13,8 C 9,0 C 0,0 UV-I 0,0 C 68 % 99 % 0 % 1020,2 hPa 0,4 l/m 5,7 km/h (1 Bft) 0,00 h 0,73 h 9,3 km/h (2 Bft)
07.11.2012 07:00 13,9 C 9,2 C 0,0 UV-I 0,0 C 68 % 99 % 0 % 1020,9 hPa 0,5 l/m 4,5 km/h (1 Bft) 0,00 h 0,67 h 8,1 km/h (2 Bft)
07.11.2012 08:00 14,1 C 9,5 C 0,0 UV-I 0,0 C 68 % 99 % 0 % 1021,7 hPa 0,0 l/m 3,7 km/h (1 Bft) 0,00 h 0,17 h 6,4 km/h (2 Bft)
07.11.2012 09:00 14,3 C 9,7 C 0,0 UV-I 0,0 C 68 % 99 % 0 % 1022,3 hPa 0,1 l/m 4,6 km/h (1 Bft) 0,00 h 0,27 h 7,0 km/h (2 Bft)
07.11.2012 10:00 14,6 C 9,9 C 0,0 UV-I 0,0 C 68 % 99 % 0 % 1022,9 hPa 0,0 l/m 5,3 km/h (1 Bft) 0,00 h 0,07 h 8,2 km/h (2 Bft)
07.11.2012 11:00 14,5 C 10,0 C 0,0 UV-I 0,1 C 69 % 99 % 3 % 1023,4 hPa 0,1 l/m 6,2 km/h (2 Bft) 0,00 h 0,00 h 9,6 km/h (2 Bft)
07.11.2012 12:00 14,4 C 10,2 C 0,0 UV-I 0,0 C 69 % 98 % 0 % 1023,4 hPa 0,0 l/m 6,5 km/h (2 Bft) 0,00 h 0,00 h 8,2 km/h (2 Bft)
07.11.2012 13:00 14,3 C 10,1 C 0,0 UV-I 0,0 C 68 % 97 % 0 % 1023,4 hPa 0,0 l/m 6,9 km/h (2 Bft) 0,00 h 0,00 h 8,9 km/h (2 Bft)
07.11.2012 14:00 14,4 C 9,8 C 0,0 UV-I 0,0 C 67 % 96 % 0 % 1023,7 hPa 0,0 l/m 6,7 km/h (2 Bft) 0,00 h 0,00 h 9,6 km/h (2 Bft)
07.11.2012 15:00 14,4 C 9,5 C 0,0 UV-I 0,0 C 66 % 95 % 0 % 1023,7 hPa 0,0 l/m 3,0 km/h (1 Bft) 0,00 h 0,00 h 4,7 km/h (1 Bft)
07.11.2012 16:00 14,3 C 9,5 C 0,0 UV-I 0,0 C 64 % 94 % 0 % 1023,6 hPa 0,0 l/m 2,3 km/h (1 Bft) 0,00 h 0,00 h 4,5 km/h (1 Bft)
07.11.2012 17:00 14,3 C 9,2 C 0,0 UV-I 0,0 C 64 % 93 % 0 % 1023,6 hPa 0,0 l/m 0,6 km/h (0 Bft) 0,00 h 0,00 h 1,2 km/h (1 Bft)
07.11.2012 18:00 14,1 C 8,9 C 0,0 UV-I 0,0 C 64 % 94 % 0 % 1023,8 hPa 0,0 l/m 0,1 km/h (0 Bft) 0,00 h 0,00 h 0,6 km/h (0 Bft)
07.11.2012 19:00 14,2 C 9,0 C 0,0 UV-I 0,0 C 64 % 94 % 0 % 1023,7 hPa 0,0 l/m 0,9 km/h (0 Bft) 0,00 h 0,00 h 2,1 km/h (1 Bft)
07.11.2012 20:00 14,2 C 9,5 C 0,0 UV-I 0,0 C 64 % 94 % 0 % 1023,5 hPa 0,0 l/m 1,4 km/h (1 Bft) 0,00 h 0,00 h 2,9 km/h (1 Bft)
07.11.2012 21:00 14,2 C 10,1 C 0,0 UV-I 0,0 C 64 % 92 % 0 % 1023,3 hPa 0,0 l/m 3,7 km/h (1 Bft) 0,00 h 0,00 h 5,5 km/h (1 Bft)
07.11.2012 22:00 14,1 C 10,2 C 0,0 UV-I 0,0 C 63 % 88 % 0 % 1023,2 hPa 0,0 l/m 5,6 km/h (1 Bft) 0,00 h 0,00 h 7,7 km/h (2 Bft)
07.11.2012 23:00 14,2 C 10,1 C 0,0 UV-I 0,0 C 63 % 87 % 0 % 1022,9 hPa 0,0 l/m 5,8 km/h (2 Bft) 0,00 h 0,00 h 9,8 km/h (2 Bft)
08.11.2012 00:00 14,2 C 10,3 C 0,0 UV-I 0,0 C 61 % 84 % 0 % 1022,7 hPa 0,0 l/m 8,1 km/h (2 Bft) 0,00 h 0,00 h 10,3 km/h (2 Bft)
08.11.2012 01:00 14,2 C 10,1 C 0,0 UV-I 0,0 C 61 % 84 % 0 % 1022,2 hPa 0,0 l/m 5,8 km/h (2 Bft) 0,00 h 0,00 h 9,1 km/h (2 Bft)
08.11.2012 02:00 14,2 C 9,9 C 0,0 UV-I 0,0 C 60 % 83 % 0 % 1021,4 hPa 0,0 l/m 5,1 km/h (1 Bft) 0,00 h 0,00 h 7,3 km/h (2 Bft)
08.11.2012 03:00 14,2 C 9,7 C 0,0 UV-I 0,0 C 60 % 84 % 0 % 1020,7 hPa 0,0 l/m 5,4 km/h (1 Bft) 0,00 h 0,00 h 9,4 km/h (2 Bft)
08.11.2012 04:00 14,2 C 9,7 C 0,0 UV-I 0,0 C 59 % 84 % 0 % 1019,9 hPa 0,0 l/m 5,4 km/h (1 Bft) 0,00 h 0,00 h 8,2 km/h (2 Bft)
08.11.2012 05:00 14,1 C 9,7 C 0,0 UV-I 0,0 C 59 % 84 % 0 % 1019,4 hPa 0,0 l/m 5,5 km/h (1 Bft) 0,00 h 0,00 h 6,8 km/h (2 Bft)
08.11.2012 06:00 14,1 C 9,7 C 0,0 UV-I 0,0 C 59 % 84 % 0 % 1019,2 hPa 0,0 l/m 5,3 km/h (1 Bft) 0,00 h 0,00 h 7,7 km/h (2 Bft)
08.11.2012 07:00 14,1 C 9,7 C 0,0 UV-I 0,0 C 59 % 84 % 0 % 1019,0 hPa 0,0 l/m 4,3 km/h (1 Bft) 0,00 h 0,00 h 7,8 km/h (2 Bft)
08.11.2012 08:00 14,1 C 9,6 C 0,0 UV-I 0,0 C 59 % 85 % 0 % 1019,1 hPa 0,0 l/m 2,9 km/h (1 Bft) 0,00 h 0,00 h 5,3 km/h (1 Bft)
08.11.2012 09:00 14,2 C 9,6 C 0,0 UV-I 0,0 C 60 % 85 % 0 % 1018,9 hPa 0,0 l/m 4,7 km/h (1 Bft) 0,00 h 0,07 h 7,9 km/h (2 Bft)
08.11.2012 10:00 14,2 C 9,8 C 0,0 UV-I 0,0 C 60 % 85 % 0 % 1018,7 hPa 0,0 l/m 5,3 km/h (1 Bft) 0,00 h 0,00 h 7,9 km/h (2 Bft)
08.11.2012 11:00 14,3 C 10,0 C 0,0 UV-I 0,3 C 60 % 85 % 8 % 1018,5 hPa 0,0 l/m 6,7 km/h (2 Bft) 0,00 h 0,00 h 11,5 km/h (2 Bft)
08.11.2012 12:00 14,5 C 10,2 C 0,0 UV-I 0,3 C 61 % 84 % 9 % 1017,9 hPa 0,0 l/m 5,9 km/h (2 Bft) 0,00 h 0,00 h 8,6 km/h (2 Bft)
08.11.2012 13:00 14,7 C 10,4 C 0,1 UV-I 0,9 C 60 % 84 % 25 % 1017,5 hPa 0,0 l/m 7,2 km/h (2 Bft) 0,00 h 0,00 h 10,5 km/h (2 Bft)
08.11.2012 14:00 15,1 C 10,7 C 0,1 UV-I 1,0 C 59 % 84 % 28 % 1016,7 hPa 0,0 l/m 7,7 km/h (2 Bft) 0,00 h 0,00 h 10,9 km/h (2 Bft)
08.11.2012 15:00 15,1 C 10,4 C 0,0 UV-I 0,0 C 60 % 86 % 0 % 1016,5 hPa 0,0 l/m 5,4 km/h (1 Bft) 0,00 h 0,00 h 7,0 km/h (2 Bft)
08.11.2012 16:00 14,8 C 10,0 C 0,0 UV-I 0,0 C 60 % 87 % 0 % 1016,8 hPa 0,0 l/m 4,1 km/h (1 Bft) 0,00 h 0,00 h 5,5 km/h (1 Bft)
08.11.2012 17:00 14,8 C 9,6 C 0,0 UV-I 0,0 C 60 % 88 % 0 % 1016,5 hPa 0,0 l/m 3,7 km/h (1 Bft) 0,00 h 0,00 h 5,9 km/h (2 Bft)
08.11.2012 18:00 14,8 C 9,6 C 0,0 UV-I 0,0 C 60 % 88 % 0 % 1016,6 hPa 0,0 l/m 3,9 km/h (1 Bft) 0,00 h 0,00 h 6,4 km/h (2 Bft)
08.11.2012 19:00 14,6 C 9,4 C 0,0 UV-I 0,0 C 60 % 89 % 0 % 1016,9 hPa 0,0 l/m 5,2 km/h (1 Bft) 0,00 h 0,00 h 7,4 km/h (2 Bft)
08.11.2012 20:00 14,7 C 9,2 C 0,0 UV-I 0,0 C 61 % 90 % 0 % 1017,1 hPa 0,0 l/m 4,2 km/h (1 Bft) 0,00 h 0,00 h 6,2 km/h (2 Bft)
08.11.2012 21:00 14,7 C 9,1 C 0,0 UV-I 0,0 C 61 % 91 % 0 % 1017,4 hPa 0,0 l/m 2,9 km/h (1 Bft) 0,00 h 0,00 h 5,4 km/h (1 Bft)
08.11.2012 22:00 14,7 C 8,9 C 0,0 UV-I 0,0 C 61 % 91 % 0 % 1017,2 hPa 0,0 l/m 3,3 km/h (1 Bft) 0,00 h 0,00 h 5,3 km/h (1 Bft)
08.11.2012 23:00 14,7 C 8,8 C 0,0 UV-I 0,0 C 61 % 92 % 0 % 1017,1 hPa 0,0 l/m 3,1 km/h (1 Bft) 0,00 h 0,00 h 5,0 km/h (1 Bft)
09.11.2012 00:00 14,7 C 8,7 C 0,0 UV-I 0,0 C 61 % 92 % 0 % 1017,2 hPa 0,0 l/m 4,4 km/h (1 Bft) 0,00 h 0,00 h 7,4 km/h (2 Bft)
09.11.2012 01:00 14,7 C 8,7 C 0,0 UV-I 0,0 C 61 % 93 % 0 % 1017,1 hPa 0,0 l/m 2,5 km/h (1 Bft) 0,00 h 0,00 h 4,9 km/h (1 Bft)
09.11.2012 02:00 14,7 C 8,7 C 0,0 UV-I 0,0 C 61 % 93 % 0 % 1017,1 hPa 0,0 l/m 0,8 km/h (0 Bft) 0,00 h 0,00 h 1,3 km/h (1 Bft)
09.11.2012 03:00 14,8 C 8,6 C 0,0 UV-I 0,0 C 62 % 94 % 0 % 1016,9 hPa 0,0 l/m 1,5 km/h (1 Bft) 0,00 h 0,00 h 2,7 km/h (1 Bft)
09.11.2012 04:00 14,8 C 8,7 C 0,0 UV-I 0,0 C 62 % 94 % 0 % 1016,9 hPa 0,0 l/m 1,4 km/h (1 Bft) 0,00 h 0,00 h 1,7 km/h (1 Bft)
09.11.2012 05:00 14,8 C 8,7 C 0,0 UV-I 0,0 C 61 % 94 % 0 % 1016,9 hPa 0,0 l/m 2,1 km/h (1 Bft) 0,00 h 0,00 h 3,9 km/h (1 Bft)
09.11.2012 06:00 14,8 C 8,7 C 0,0 UV-I 0,0 C 61 % 93 % 0 % 1016,9 hPa 0,0 l/m 1,1 km/h (1 Bft) 0,00 h 0,00 h 1,8 km/h (1 Bft)
09.11.2012 07:00 14,8 C 8,6 C 0,0 UV-I 0,0 C 61 % 93 % 0 % 1016,8 hPa 0,0 l/m 0,8 km/h (0 Bft) 0,00 h 0,00 h 1,4 km/h (1 Bft)
09.11.2012 08:00 14,8 C 8,7 C 0,0 UV-I 0,0 C 61 % 92 % 0 % 1017,1 hPa 0,0 l/m 1,1 km/h (1 Bft) 0,00 h 0,00 h 3,0 km/h (1 Bft)
09.11.2012 09:00 14,8 C 9,1 C 0,0 UV-I 0,1 C 61 % 91 % 3 % 1016,9 hPa 0,0 l/m 1,4 km/h (1 Bft) 0,00 h 0,00 h 2,5 km/h (1 Bft)
09.11.2012 10:00 15,0 C 9,7 C 0,0 UV-I 0,5 C 60 % 90 % 15 % 1016,2 hPa 0,0 l/m 1,7 km/h (1 Bft) 0,00 h 0,00 h 2,4 km/h (1 Bft)
09.11.2012 11:00 15,1 C 10,2 C 0,0 UV-I 0,6 C 60 % 88 % 17 % 1016,0 hPa 0,0 l/m 2,4 km/h (1 Bft) 0,00 h 0,00 h 4,6 km/h (1 Bft)
09.11.2012 12:00 15,3 C 11,0 C 0,0 UV-I 0,9 C 59 % 84 % 27 % 1014,9 hPa 0,0 l/m 4,1 km/h (1 Bft) 0,00 h 0,00 h 6,5 km/h (2 Bft)
09.11.2012 13:00 15,5 C 11,3 C 0,1 UV-I 0,8 C 58 % 76 % 24 % 1014,2 hPa 0,0 l/m 5,6 km/h (1 Bft) 0,00 h 0,00 h 8,8 km/h (2 Bft)
09.11.2012 14:00 16,1 C 12,2 C 0,1 UV-I 2,8 C 55 % 70 % 78 % 1013,0 hPa 0,0 l/m 6,8 km/h (2 Bft) 0,73 h 0,00 h 10,9 km/h (2 Bft)
09.11.2012 15:00 17,3 C 11,7 C 0,0 UV-I 1,9 C 51 % 67 % 49 % 1012,2 hPa 0,0 l/m 5,2 km/h (1 Bft) 0,50 h 0,00 h 6,8 km/h (2 Bft)
09.11.2012 16:00 17,1 C 10,3 C 0,0 UV-I 0,0 C 50 % 73 % 0 % 1011,6 hPa 0,0 l/m 1,1 km/h (1 Bft) 0,00 h 0,00 h 1,3 km/h (1 Bft)
09.11.2012 17:00 16,3 C 9,6 C 0,0 UV-I 0,0 C 52 % 78 % 0 % 1010,9 hPa 0,0 l/m 1,3 km/h (1 Bft) 0,00 h 0,00 h 2,8 km/h (1 Bft)
09.11.2012 18:00 15,8 C 9,5 C 0,0 UV-I 0,0 C 54 % 81 % 0 % 1010,3 hPa 0,0 l/m 5,5 km/h (1 Bft) 0,00 h 0,00 h 8,5 km/h (2 Bft)
09.11.2012 19:00 15,6 C 9,3 C 0,0 UV-I 0,0 C 54 % 81 % 0 % 1009,7 hPa 0,0 l/m 8,1 km/h (2 Bft) 0,00 h 0,00 h 10,9 km/h (2 Bft)
09.11.2012 20:00 15,4 C 8,9 C 0,0 UV-I 0,0 C 55 % 82 % 0 % 1008,7 hPa 0,0 l/m 6,5 km/h (2 Bft) 0,00 h 0,00 h 7,7 km/h (2 Bft)
09.11.2012 21:00 15,3 C 8,5 C 0,0 UV-I 0,0 C 55 % 84 % 0 % 1008,0 hPa 0,0 l/m 6,2 km/h (2 Bft) 0,00 h 0,00 h 8,6 km/h (2 Bft)
09.11.2012 22:00 15,2 C 8,4 C 0,0 UV-I 0,0 C 55 % 86 % 0 % 1007,4 hPa 0,0 l/m 7,9 km/h (2 Bft) 0,00 h 0,07 h 11,6 km/h (2 Bft)
09.11.2012 23:00 15,2 C 8,6 C 0,0 UV-I 0,0 C 56 % 86 % 0 % 1006,9 hPa 0,0 l/m 8,9 km/h (2 Bft) 0,00 h 0,00 h 11,4 km/h (2 Bft)
10.11.2012 00:00 15,2 C 8,8 C 0,0 UV-I 0,0 C 56 % 85 % 0 % 1006,5 hPa 0,2 l/m 7,9 km/h (2 Bft) 0,00 h 0,23 h 10,6 km/h (2 Bft)
10.11.2012 01:00 15,3 C 8,4 C 0,0 UV-I 0,0 C 56 % 88 % 0 % 1005,9 hPa 0,2 l/m 6,8 km/h (2 Bft) 0,00 h 0,30 h 8,6 km/h (2 Bft)
10.11.2012 02:00 15,3 C 8,1 C 0,0 UV-I 0,0 C 57 % 91 % 0 % 1005,5 hPa 1,4 l/m 3,2 km/h (1 Bft) 0,00 h 0,90 h 3,9 km/h (1 Bft)
10.11.2012 03:00 15,2 C 7,9 C 0,0 UV-I 0,0 C 58 % 93 % 0 % 1004,8 hPa 0,1 l/m 4,2 km/h (1 Bft) 0,00 h 0,03 h 6,3 km/h (2 Bft)
10.11.2012 04:00 15,2 C 8,1 C 0,0 UV-I 0,0 C 59 % 95 % 0 % 1003,9 hPa 0,0 l/m 5,7 km/h (1 Bft) 0,00 h 0,00 h 8,5 km/h (2 Bft)
10.11.2012 05:00 15,2 C 8,3 C 0,0 UV-I 0,0 C 59 % 95 % 0 % 1003,0 hPa 0,0 l/m 7,2 km/h (2 Bft) 0,00 h 0,00 h 10,1 km/h (2 Bft)
10.11.2012 06:00 15,2 C 8,3 C 0,0 UV-I 0,0 C 59 % 95 % 0 % 1002,4 hPa 0,0 l/m 6,3 km/h (2 Bft) 0,00 h 0,00 h 9,0 km/h (2 Bft)
10.11.2012 07:00 15,2 C 8,5 C 0,0 UV-I 0,0 C 59 % 95 % 0 % 1002,3 hPa 0,0 l/m 8,4 km/h (2 Bft) 0,00 h 0,00 h 12,0 km/h (2 Bft)
10.11.2012 08:00 15,2 C 8,7 C 0,0 UV-I 0,0 C 60 % 95 % 0 % 1002,1 hPa 0,0 l/m 5,8 km/h (2 Bft) 0,00 h 0,00 h 7,2 km/h (2 Bft)
10.11.2012 09:00 15,4 C 9,2 C 0,0 UV-I 0,2 C 60 % 95 % 5 % 1001,8 hPa 0,0 l/m 6,2 km/h (2 Bft) 0,00 h 0,00 h 9,0 km/h (2 Bft)
10.11.2012 10:00 15,5 C 10,0 C 0,0 UV-I 0,4 C 60 % 95 % 11 % 1001,3 hPa 0,0 l/m 6,3 km/h (2 Bft) 0,00 h 0,00 h 8,6 km/h (2 Bft)
10.11.2012 11:00 15,6 C 10,5 C 0,1 UV-I 0,5 C 61 % 93 % 13 % 1000,4 hPa 0,0 l/m 7,5 km/h (2 Bft) 0,00 h 0,00 h 9,8 km/h (2 Bft)
10.11.2012 12:00 15,7 C 11,5 C 0,4 UV-I 1,9 C 62 % 92 % 50 % 999,8 hPa 0,0 l/m 6,8 km/h (2 Bft) 0,27 h 0,00 h 9,2 km/h (2 Bft)
10.11.2012 13:00 16,3 C 13,0 C 0,3 UV-I 2,3 C 62 % 90 % 63 % 999,3 hPa 0,0 l/m 5,7 km/h (1 Bft) 0,20 h 0,00 h 7,4 km/h (2 Bft)
10.11.2012 14:00 16,4 C 13,2 C 0,0 UV-I 0,3 C 63 % 89 % 7 % 998,7 hPa 0,0 l/m 2,7 km/h (1 Bft) 0,00 h 0,00 h 4,8 km/h (1 Bft)
10.11.2012 15:00 16,2 C 12,9 C 0,0 UV-I 0,0 C 64 % 90 % 0 % 998,9 hPa 0,0 l/m 1,5 km/h (1 Bft) 0,00 h 0,30 h 1,9 km/h (1 Bft)
10.11.2012 16:00 16,0 C 12,5 C 0,0 UV-I 0,0 C 66 % 93 % 0 % 998,2 hPa 0,6 l/m 0,9 km/h (0 Bft) 0,00 h 0,83 h 1,5 km/h (1 Bft)
10.11.2012 17:00 15,9 C 11,6 C 0,0 UV-I 0,0 C 67 % 94 % 0 % 998,3 hPa 0,5 l/m 3,9 km/h (1 Bft) 0,00 h 0,50 h 5,7 km/h (1 Bft)
10.11.2012 18:00 15,7 C 11,2 C 0,0 UV-I 0,0 C 68 % 96 % 0 % 998,2 hPa 0,0 l/m 3,1 km/h (1 Bft) 0,00 h 0,00 h 4,2 km/h (1 Bft)
10.11.2012 19:00 15,6 C 11,1 C 0,0 UV-I 0,0 C 68 % 97 % 0 % 998,5 hPa 0,1 l/m 4,0 km/h (1 Bft) 0,00 h 0,03 h 5,6 km/h (1 Bft)
10.11.2012 20:00 15,6 C 10,8 C 0,0 UV-I 0,0 C 69 % 97 % 0 % 998,2 hPa 0,0 l/m 5,0 km/h (1 Bft) 0,00 h 0,00 h 7,4 km/h (2 Bft)
10.11.2012 21:00 15,5 C 10,6 C 0,0 UV-I 0,0 C 69 % 98 % 0 % 998,8 hPa 0,0 l/m 5,5 km/h (1 Bft) 0,00 h 0,00 h 7,7 km/h (2 Bft)
10.11.2012 22:00 15,5 C 10,6 C 0,0 UV-I 0,0 C 69 % 98 % 0 % 999,1 hPa 0,0 l/m 2,5 km/h (1 Bft) 0,00 h 0,00 h 3,1 km/h (1 Bft)
10.11.2012 23:00 15,3 C 10,4 C 0,0 UV-I 0,0 C 68 % 98 % 0 % 999,4 hPa 0,0 l/m 3,8 km/h (1 Bft) 0,00 h 0,00 h 6,8 km/h (2 Bft)
11.11.2012 00:00 15,3 C 11,1 C 0,0 UV-I 0,0 C 67 % 97 % 0 % 1000,1 hPa 0,0 l/m 4,4 km/h (1 Bft) 0,00 h 0,27 h 7,9 km/h (2 Bft)
11.11.2012 01:00 15,4 C 11,3 C 0,0 UV-I 0,0 C 68 % 95 % 0 % 1001,0 hPa 0,1 l/m 4,9 km/h (1 Bft) 0,00 h 0,20 h 7,1 km/h (2 Bft)
11.11.2012 02:00 15,3 C 10,5 C 0,0 UV-I 0,0 C 66 % 93 % 0 % 1002,4 hPa 0,0 l/m 4,2 km/h (1 Bft) 0,00 h 0,07 h 7,6 km/h (2 Bft)
11.11.2012 03:00 15,2 C 9,8 C 0,0 UV-I 0,0 C 65 % 93 % 0 % 1003,4 hPa 0,0 l/m 1,6 km/h (1 Bft) 0,00 h 0,00 h 2,7 km/h (1 Bft)
11.11.2012 04:00 15,2 C 9,5 C 0,0 UV-I 0,0 C 64 % 93 % 0 % 1004,4 hPa 0,0 l/m 0,9 km/h (0 Bft) 0,00 h 0,00 h 1,1 km/h (0 Bft)
11.11.2012 05:00 15,0 C 9,3 C 0,0 UV-I 0,0 C 63 % 92 % 0 % 1005,4 hPa 0,0 l/m 2,6 km/h (1 Bft) 0,00 h 0,00 h 4,2 km/h (1 Bft)
11.11.2012 06:00 14,8 C 8,9 C 0,0 UV-I 0,0 C 62 % 92 % 0 % 1006,5 hPa 0,0 l/m 1,1 km/h (1 Bft) 0,00 h 0,00 h 2,0 km/h (1 Bft)
11.11.2012 07:00 14,8 C 8,6 C 0,0 UV-I 0,0 C 62 % 93 % 0 % 1007,1 hPa 0,0 l/m 0,9 km/h (0 Bft) 0,00 h 0,00 h 3,3 km/h (1 Bft)
11.11.2012 08:00 14,8 C 8,4 C 0,0 UV-I 0,0 C 62 % 93 % 0 % 1008,3 hPa 0,0 l/m 1,9 km/h (1 Bft) 0,00 h 0,00 h 3,5 km/h (1 Bft)
11.11.2012 09:00 15,0 C 8,3 C 0,0 UV-I 0,4 C 62 % 93 % 12 % 1009,1 hPa 0,0 l/m 2,1 km/h (1 Bft) 0,10 h 0,00 h 3,9 km/h (1 Bft)
11.11.2012 10:00 15,1 C 9,1 C 0,0 UV-I 3,8 C 61 % 91 % 82 % 1009,4 hPa 0,0 l/m 3,8 km/h (1 Bft) 0,67 h 0,00 h 6,9 km/h (2 Bft)
11.11.2012 11:00 15,3 C 9,5 C 0,2 UV-I 3,3 C 61 % 90 % 74 % 1010,3 hPa 0,0 l/m 1,9 km/h (1 Bft) 0,47 h 0,00 h 3,8 km/h (1 Bft)
11.11.2012 12:00 15,6 C 10,7 C 0,5 UV-I 6,7 C 60 % 86 % 100 % 1010,7 hPa 0,0 l/m 2,5 km/h (1 Bft) 1,00 h 0,00 h 4,6 km/h (1 Bft)
11.11.2012 13:00 16,4 C 11,6 C 0,4 UV-I 6,1 C 59 % 83 % 100 % 1011,7 hPa 0,0 l/m 3,4 km/h (1 Bft) 1,00 h 0,00 h 5,3 km/h (1 Bft)
11.11.2012 14:00 17,2 C 11,7 C 0,2 UV-I 2,8 C 56 % 79 % 75 % 1012,3 hPa 0,0 l/m 2,2 km/h (1 Bft) 0,70 h 0,00 h 3,1 km/h (1 Bft)
11.11.2012 15:00 17,7 C 11,4 C 0,0 UV-I 2,8 C 54 % 79 % 65 % 1012,9 hPa 0,0 l/m 1,3 km/h (1 Bft) 0,70 h 0,00 h 1,5 km/h (1 Bft)
11.11.2012 16:00 17,4 C 10,3 C 0,0 UV-I 0,0 C 54 % 81 % 0 % 1013,0 hPa 0,0 l/m 0,4 km/h (0 Bft) 0,00 h 0,00 h 0,8 km/h (0 Bft)
11.11.2012 17:00 16,6 C 8,6 C 0,0 UV-I 0,0 C 55 % 84 % 0 % 1014,0 hPa 0,0 l/m 0,0 km/h (0 Bft) 0,00 h 0,00 h 0,0 km/h (0 Bft)
11.11.2012 18:00 15,9 C 6,6 C 0,0 UV-I 0,0 C 57 % 87 % 0 % 1015,1 hPa 0,0 l/m 0,0 km/h (0 Bft) 0,00 h 0,00 h 0,0 km/h (0 Bft)
11.11.2012 19:00 15,6 C 6,4 C 0,0 UV-I 0,0 C 58 % 92 % 0 % 1016,0 hPa 0,0 l/m 0,6 km/h (0 Bft) 0,00 h 0,00 h 1,2 km/h (1 Bft)
11.11.2012 20:00 15,4 C 6,8 C 0,0 UV-I 0,0 C 58 % 93 % 0 % 1016,8 hPa 0,0 l/m 2,6 km/h (1 Bft) 0,00 h 0,00 h 4,9 km/h (1 Bft)
11.11.2012 21:00 15,2 C 6,2 C 0,0 UV-I 0,0 C 58 % 94 % 0 % 1017,6 hPa 0,0 l/m 0,9 km/h (0 Bft) 0,00 h 0,00 h 1,7 km/h (1 Bft)
11.11.2012 22:00 15,1 C 5,9 C 0,0 UV-I 0,0 C 58 % 94 % 0 % 1018,7 hPa 0,0 l/m 1,8 km/h (1 Bft) 0,00 h 0,00 h 4,1 km/h (1 Bft)
11.11.2012 23:00 14,9 C 5,7 C 0,0 UV-I 0,0 C 58 % 94 % 0 % 1019,3 hPa 0,0 l/m 1,0 km/h (0 Bft) 0,00 h 0,00 h 2,0 km/h (1 Bft)
Min-Datum _ 06.11.12 06.11.12 05.11.12 05.11.12 09.11.12 09.11.12 05.11.12 05.11.12 - 05.11.12 - - 05.11.12
_ Min-Zeit 23:06 07:52 00:00 00:00 15:34 15:04 00:00 00:00 - 16:50 - - 00:04
Minimum _ 13,6 C 2,5 C 0,0 UV-I 0,0 C 50 % 66 % 0 % 996,6 hPa - 0,0 km/h (0 Bft) - - 0,0 km/h (0 Bft)
Max-Datum _ 11.11.12 10.11.12 06.11.12 06.11.12 07.11.12 06.11.12 06.11.12 07.11.12 10.11.12 06.11.12 05.11.12 05.11.12 07.11.12
_ Max-Zeit 15:38 13:52 12:44 11:04 07:32 09:12 09:20 18:04 02:06 23:34 09:10 12:08 23:58
Maximum _ 17,9 C 13,5 C 1,0 UV-I 8,5 C 69 % 99 % 100 % 1023,9 hPa 1,4 l/m 11,6 km/h
S (2 Bft)
0,03 h 0,03 h 39,3 km/h
S (6 Bft)
Durchschnitt _ 14,9 C 8,7 C 0,0 UV-I 0,5 C 59 % 90 % 9 % 1011,8 hPa #7,3 l/m 3,8 km/h (1 Bft) #11:11 h #10:38 h 5,8 km/h (2 Bft)
© 2012 W. Hausmann